createdAt,value
2023-03-29T00:00:14.783Z,1208.00
2023-03-29T00:01:35.051Z,1210.00
2023-03-29T00:02:15.835Z,1210.00
2023-03-29T00:03:14.938Z,1212.00
2023-03-29T00:04:14.816Z,1212.00
2023-03-29T00:05:14.785Z,1211.00
2023-03-29T00:06:14.774Z,1210.00
2023-03-29T00:07:14.752Z,1211.00
2023-03-29T00:08:15.003Z,1209.00
2023-03-29T00:09:14.735Z,1208.00
2023-03-29T00:10:14.712Z,1203.00
2023-03-29T00:11:14.684Z,1202.00
2023-03-29T00:12:14.681Z,1202.00
2023-03-29T00:13:14.720Z,1200.00
2023-03-29T00:14:14.758Z,1201.00
2023-03-29T00:15:14.800Z,1200.00
2023-03-29T00:16:14.859Z,1199.00
2023-03-29T00:17:14.928Z,1198.00
2023-03-29T00:18:14.919Z,1196.00
2023-03-29T00:19:14.954Z,1198.00
2023-03-29T00:20:14.993Z,1198.00
2023-03-29T00:21:15.040Z,1200.00
2023-03-29T00:22:15.076Z,1203.00
2023-03-29T00:23:15.111Z,1197.00
2023-03-29T00:24:15.162Z,1196.00
2023-03-29T00:25:15.204Z,1196.00
2023-03-29T00:26:15.246Z,1199.00
2023-03-29T00:27:15.284Z,1204.00
2023-03-29T00:28:15.328Z,1205.00
2023-03-29T00:29:15.366Z,1202.00
2023-03-29T00:30:15.429Z,1198.00
2023-03-29T00:31:15.484Z,1198.00
2023-03-29T00:32:15.485Z,1194.00
2023-03-29T00:33:15.517Z,1198.00
2023-03-29T00:34:15.575Z,1200.00
2023-03-29T00:35:15.595Z,1202.00
2023-03-29T00:36:15.633Z,1198.00
2023-03-29T00:37:15.691Z,1195.00
2023-03-29T00:38:15.712Z,1190.00
2023-03-29T00:39:15.747Z,1189.00
2023-03-29T00:40:15.843Z,1190.00
2023-03-29T00:41:15.824Z,1190.00
2023-03-29T00:42:15.870Z,1188.00
2023-03-29T00:43:15.900Z,1185.00
2023-03-29T00:44:15.937Z,1184.00
2023-03-29T00:45:15.979Z,1183.00
2023-03-29T00:46:16.069Z,1182.00
2023-03-29T00:47:16.048Z,1180.00
2023-03-29T00:48:16.084Z,1184.00
2023-03-29T00:49:16.127Z,1183.00
2023-03-29T00:50:16.164Z,1184.00
2023-03-29T00:51:16.207Z,1181.00
2023-03-29T00:52:16.249Z,1181.00
2023-03-29T00:53:16.283Z,1177.00
2023-03-29T00:54:16.332Z,1178.00
2023-03-29T00:55:16.370Z,1178.00
2023-03-29T00:56:16.409Z,1179.00
2023-03-29T00:57:17.126Z,1177.00
2023-03-29T00:58:16.496Z,1177.00
2023-03-29T00:59:16.547Z,1174.00
2023-03-29T01:00:16.582Z,1173.00
2023-03-29T01:01:16.667Z,1175.00
2023-03-29T01:02:16.725Z,1173.00
2023-03-29T01:03:16.837Z,1170.00
2023-03-29T01:04:16.791Z,1168.00
2023-03-29T01:05:16.844Z,1167.00
2023-03-29T01:06:16.897Z,1167.00
2023-03-29T01:07:17.017Z,1166.00
2023-03-29T01:08:16.973Z,1167.00
2023-03-29T01:09:17.021Z,1166.00
2023-03-29T01:10:17.068Z,1162.00
2023-03-29T01:11:17.113Z,1163.00
2023-03-29T01:12:17.177Z,1166.00
2023-03-29T01:13:17.207Z,1163.00
2023-03-29T01:14:17.248Z,1162.00
2023-03-29T01:15:17.289Z,1166.00
2023-03-29T01:16:17.380Z,1166.00
2023-03-29T01:17:17.386Z,1164.00
2023-03-29T01:18:17.431Z,1162.00
2023-03-29T01:19:17.527Z,1157.00
2023-03-29T01:20:17.536Z,1156.00
2023-03-29T01:21:17.606Z,1155.00
2023-03-29T01:22:17.602Z,1157.00
2023-03-29T01:23:17.654Z,1162.00
2023-03-29T01:24:17.718Z,1156.00
2023-03-29T01:25:17.742Z,1155.00
2023-03-29T01:26:17.795Z,1155.00
2023-03-29T01:27:17.848Z,1154.00
2023-03-29T01:28:17.906Z,1156.00
2023-03-29T01:29:17.954Z,1159.00
2023-03-29T01:30:17.987Z,1157.00
2023-03-29T01:31:18.052Z,1157.00
2023-03-29T01:32:18.099Z,1155.00
2023-03-29T01:33:18.125Z,1153.00
2023-03-29T01:34:18.191Z,1151.00
2023-03-29T01:35:18.231Z,1152.00
2023-03-29T01:36:18.347Z,1153.00
2023-03-29T01:37:18.322Z,1155.00
2023-03-29T01:38:18.357Z,1153.00
2023-03-29T01:39:18.411Z,1153.00
2023-03-29T01:40:18.449Z,1155.00
2023-03-29T01:41:18.487Z,1156.00
2023-03-29T01:42:18.532Z,1156.00
2023-03-29T01:43:18.574Z,1153.00
2023-03-29T01:44:18.628Z,1150.00
2023-03-29T01:45:18.655Z,1151.00
2023-03-29T01:46:18.737Z,1151.00
2023-03-29T01:47:18.756Z,1151.00
2023-03-29T01:48:18.797Z,1147.00
2023-03-29T01:49:18.843Z,1146.00
2023-03-29T01:50:18.889Z,1143.00
2023-03-29T01:51:18.917Z,1145.00
2023-03-29T01:52:18.969Z,1144.00
2023-03-29T01:53:19.010Z,1142.00
2023-03-29T01:54:19.041Z,1142.00
2023-03-29T01:55:19.074Z,1142.00
2023-03-29T01:56:19.112Z,1143.00
2023-03-29T01:57:19.216Z,1143.00
2023-03-29T01:58:19.184Z,1143.00
2023-03-29T01:59:19.236Z,1143.00
2023-03-29T02:00:19.273Z,1144.00
2023-03-29T02:01:19.322Z,1145.00
2023-03-29T02:02:19.376Z,1145.00
2023-03-29T02:03:19.468Z,1145.00
2023-03-29T02:04:19.432Z,1144.00
2023-03-29T02:05:19.470Z,1144.00
2023-03-29T02:06:19.508Z,1138.00
2023-03-29T02:07:19.551Z,1139.00
2023-03-29T02:08:19.596Z,1136.00
2023-03-29T02:09:19.645Z,1136.00
2023-03-29T02:10:19.701Z,1137.00
2023-03-29T02:11:19.730Z,1136.00
2023-03-29T02:12:19.775Z,1135.00
2023-03-29T02:13:19.823Z,1136.00
2023-03-29T02:14:19.877Z,1136.00
2023-03-29T02:15:19.932Z,1135.00
2023-03-29T02:16:20.013Z,1134.00
2023-03-29T02:17:20.032Z,1136.00
2023-03-29T02:18:20.056Z,1137.00
2023-03-29T02:19:20.104Z,1137.00
2023-03-29T02:20:20.158Z,1138.00
2023-03-29T02:21:20.186Z,1140.00
2023-03-29T02:22:20.230Z,1134.00
2023-03-29T02:23:20.294Z,1132.00
2023-03-29T02:24:20.332Z,1133.00
2023-03-29T02:25:20.371Z,1133.00
2023-03-29T02:26:20.417Z,1135.00
2023-03-29T02:27:20.465Z,1138.00
2023-03-29T02:28:20.513Z,1138.00
2023-03-29T02:29:20.554Z,1134.00
2023-03-29T02:30:20.600Z,1136.00
2023-03-29T02:31:20.696Z,1137.00
2023-03-29T02:32:20.684Z,1134.00
2023-03-29T02:33:20.732Z,1131.00
2023-03-29T02:34:20.777Z,1126.00
2023-03-29T02:35:20.809Z,1124.00
2023-03-29T02:36:20.908Z,1122.00
2023-03-29T02:37:20.877Z,1121.00
2023-03-29T02:38:20.929Z,1122.00
2023-03-29T02:39:20.974Z,1123.00
2023-03-29T02:40:21.043Z,1123.00
2023-03-29T02:41:21.062Z,1123.00
2023-03-29T02:42:21.100Z,1124.00
2023-03-29T02:43:21.880Z,1120.00
2023-03-29T02:44:21.199Z,1117.00
2023-03-29T02:45:21.233Z,1114.00
2023-03-29T02:46:21.305Z,1116.00
2023-03-29T02:47:21.317Z,1117.00
2023-03-29T02:48:21.355Z,1117.00
2023-03-29T02:49:21.413Z,1118.00
2023-03-29T02:50:21.454Z,1115.00
2023-03-29T02:51:21.499Z,1113.00
2023-03-29T02:52:21.552Z,1110.00
2023-03-29T02:53:21.595Z,1111.00
2023-03-29T02:54:21.639Z,1110.00
2023-03-29T02:55:21.685Z,1108.00
2023-03-29T02:56:21.724Z,1107.00
2023-03-29T02:57:21.844Z,1108.00
2023-03-29T02:58:21.817Z,1109.00
2023-03-29T02:59:21.865Z,1108.00
2023-03-29T03:00:21.905Z,1106.00
2023-03-29T03:01:22.023Z,1107.00
2023-03-29T03:02:21.993Z,1106.00
2023-03-29T03:03:22.137Z,1108.00
2023-03-29T03:04:22.105Z,1107.00
2023-03-29T03:05:22.137Z,1108.00
2023-03-29T03:06:22.195Z,1108.00
2023-03-29T03:07:22.248Z,1105.00
2023-03-29T03:08:22.276Z,1106.00
2023-03-29T03:09:22.347Z,1109.00
2023-03-29T03:10:22.360Z,1111.00
2023-03-29T03:11:22.400Z,1114.00
2023-03-29T03:12:22.452Z,1117.00
2023-03-29T03:13:22.494Z,1113.00
2023-03-29T03:14:22.537Z,1109.00
2023-03-29T03:15:22.567Z,1108.00
2023-03-29T03:16:22.648Z,1107.00
2023-03-29T03:17:22.663Z,1104.00
2023-03-29T03:18:22.690Z,1102.00
2023-03-29T03:19:22.721Z,1100.00
2023-03-29T03:20:22.746Z,1098.00
2023-03-29T03:21:22.782Z,1099.00
2023-03-29T03:22:22.801Z,1101.00
2023-03-29T03:23:22.810Z,1102.00
2023-03-29T03:24:22.840Z,1100.00
2023-03-29T03:25:22.856Z,1099.00
2023-03-29T03:26:22.879Z,1100.00
2023-03-29T03:27:22.907Z,1097.00
2023-03-29T03:28:22.933Z,1095.00
2023-03-29T03:29:22.948Z,1094.00
2023-03-29T03:30:22.980Z,1090.00
2023-03-29T03:31:23.016Z,1090.00
2023-03-29T03:32:23.020Z,1091.00
2023-03-29T03:33:23.035Z,1095.00
2023-03-29T03:34:23.073Z,1093.00
2023-03-29T03:35:23.077Z,1092.00
2023-03-29T03:36:23.101Z,1092.00
2023-03-29T03:37:23.113Z,1088.00
2023-03-29T03:38:23.130Z,1085.00
2023-03-29T03:39:23.179Z,1088.00
2023-03-29T03:40:23.178Z,1086.00
2023-03-29T03:41:23.174Z,1084.00
2023-03-29T03:42:23.180Z,1082.00
2023-03-29T03:43:23.194Z,1079.00
2023-03-29T03:44:23.213Z,1080.00
2023-03-29T03:45:23.226Z,1079.00
2023-03-29T03:46:23.298Z,1074.00
2023-03-29T03:47:23.296Z,1074.00
2023-03-29T03:48:23.276Z,1075.00
2023-03-29T03:49:23.306Z,1080.00
2023-03-29T03:50:23.331Z,1082.00
2023-03-29T03:51:23.339Z,1080.00
2023-03-29T03:52:23.342Z,1082.00
2023-03-29T03:53:23.356Z,1081.00
2023-03-29T03:54:23.378Z,1081.00
2023-03-29T03:55:23.390Z,1078.00
2023-03-29T03:56:23.388Z,1079.00
2023-03-29T03:57:23.426Z,1075.00
2023-03-29T03:58:23.417Z,1076.00
2023-03-29T03:59:23.431Z,1074.00
2023-03-29T04:00:23.439Z,1073.00
2023-03-29T04:01:23.455Z,1074.00
2023-03-29T04:02:23.492Z,1077.00
2023-03-29T04:03:23.549Z,1081.00
2023-03-29T04:04:23.579Z,1082.00
2023-03-29T04:05:23.449Z,1082.00
2023-03-29T04:06:23.614Z,1080.00
2023-03-29T04:07:23.459Z,1079.00
2023-03-29T04:08:23.471Z,1081.00
2023-03-29T04:09:23.482Z,1082.00
2023-03-29T04:10:23.477Z,1080.00
2023-03-29T04:11:23.494Z,1081.00
2023-03-29T04:12:23.501Z,1078.00
2023-03-29T04:13:23.500Z,1080.00
2023-03-29T04:14:23.506Z,1079.00
2023-03-29T04:15:23.502Z,1074.00
2023-03-29T04:16:23.547Z,1072.00
2023-03-29T04:17:23.547Z,1069.00
2023-03-29T04:18:23.597Z,1068.00
2023-03-29T04:19:23.531Z,1068.00
2023-03-29T04:20:23.517Z,1068.00
2023-03-29T04:21:23.540Z,1069.00
2023-03-29T04:22:23.538Z,1070.00
2023-03-29T04:23:23.538Z,1073.00
2023-03-29T04:24:23.548Z,1072.00
2023-03-29T04:25:23.544Z,1074.00
2023-03-29T04:26:23.565Z,1075.00
2023-03-29T04:27:23.561Z,1072.00
2023-03-29T04:28:23.567Z,1071.00
2023-03-29T04:29:23.582Z,1070.00
2023-03-29T04:30:23.589Z,1069.00
2023-03-29T04:31:23.633Z,1067.00
2023-03-29T04:32:23.647Z,1069.00
2023-03-29T04:33:23.599Z,1070.00
2023-03-29T04:34:23.666Z,1071.00
2023-03-29T04:35:23.623Z,1071.00
2023-03-29T04:36:23.649Z,1074.00
2023-03-29T04:37:23.622Z,1075.00
2023-03-29T04:38:23.693Z,1076.00
2023-03-29T04:39:23.653Z,1075.00
2023-03-29T04:40:23.664Z,1075.00
2023-03-29T04:41:23.687Z,1073.00
2023-03-29T04:42:23.671Z,1070.00
2023-03-29T04:43:23.714Z,1069.00
2023-03-29T04:44:23.700Z,1067.00
2023-03-29T04:45:23.729Z,1065.00
2023-03-29T04:46:23.779Z,1068.00
2023-03-29T04:47:23.808Z,1063.00
2023-03-29T04:48:23.732Z,1062.00
2023-03-29T04:49:25.993Z,1059.00
2023-03-29T04:50:23.789Z,1058.00
2023-03-29T04:51:23.787Z,1058.00
2023-03-29T04:52:24.509Z,1054.00
2023-03-29T04:53:23.814Z,1058.00
2023-03-29T04:54:23.828Z,1056.00
2023-03-29T04:55:23.841Z,1055.00
2023-03-29T04:56:23.849Z,1058.00
2023-03-29T04:57:23.954Z,1057.00
2023-03-29T04:58:27.120Z,1055.00
2023-03-29T04:59:24.837Z,1055.00
2023-03-29T05:00:23.838Z,1053.00
2023-03-29T05:01:23.877Z,1050.00
2023-03-29T05:02:23.833Z,1046.00
2023-03-29T05:03:23.782Z,1046.00
2023-03-29T05:04:23.806Z,1049.00
2023-03-29T05:05:23.763Z,1049.00
2023-03-29T05:06:23.730Z,1050.00
2023-03-29T05:07:23.714Z,1046.00
2023-03-29T05:08:23.700Z,1048.00
2023-03-29T05:09:23.693Z,1045.00
2023-03-29T05:10:23.676Z,1041.00
2023-03-29T05:11:23.654Z,1041.00
2023-03-29T05:12:23.634Z,1044.00
2023-03-29T05:13:23.617Z,1045.00
2023-03-29T05:14:23.603Z,1047.00
2023-03-29T05:15:23.589Z,1046.00
2023-03-29T05:16:23.626Z,1047.00
2023-03-29T05:17:23.592Z,1046.00
2023-03-29T05:18:23.553Z,1043.00
2023-03-29T05:19:23.543Z,1035.00
2023-03-29T05:20:23.719Z,998.00
2023-03-29T05:21:23.586Z,991.00
2023-03-29T05:22:23.596Z,985.00
2023-03-29T05:23:23.615Z,986.00
2023-03-29T05:24:23.634Z,988.00
2023-03-29T05:25:23.663Z,984.00
2023-03-29T05:26:23.668Z,976.00
2023-03-29T05:27:23.679Z,970.00
2023-03-29T05:28:23.689Z,968.00
2023-03-29T05:29:23.737Z,974.00
2023-03-29T05:30:23.721Z,980.00
2023-03-29T05:31:23.754Z,995.00
2023-03-29T05:32:23.843Z,1031.00
2023-03-29T05:33:23.755Z,1041.00
2023-03-29T05:34:23.848Z,1038.00
2023-03-29T05:35:23.767Z,1036.00
2023-03-29T05:36:23.759Z,1033.00
2023-03-29T05:37:23.762Z,1031.00
2023-03-29T05:38:23.767Z,1033.00
2023-03-29T05:39:23.775Z,1034.00
2023-03-29T05:40:23.778Z,1037.00
2023-03-29T05:41:23.779Z,1036.00
2023-03-29T05:42:23.778Z,1036.00
2023-03-29T05:43:23.783Z,1035.00
2023-03-29T05:44:23.780Z,1036.00
2023-03-29T05:45:23.813Z,1033.00
2023-03-29T05:46:23.784Z,1035.00
2023-03-29T05:47:23.806Z,1035.00
2023-03-29T05:48:23.797Z,1035.00
2023-03-29T05:49:23.798Z,1033.00
2023-03-29T05:50:23.783Z,1029.00
2023-03-29T05:51:23.772Z,1030.00
2023-03-29T05:52:23.789Z,1027.00
2023-03-29T05:53:23.782Z,1026.00
2023-03-29T05:54:23.781Z,1025.00
2023-03-29T05:55:23.794Z,1024.00
2023-03-29T05:56:23.807Z,1025.00
2023-03-29T05:57:23.899Z,1026.00
2023-03-29T05:58:23.818Z,1027.00
2023-03-29T05:59:23.824Z,1028.00
2023-03-29T06:00:24.052Z,1026.00
2023-03-29T06:01:23.837Z,1025.00
2023-03-29T06:02:23.963Z,1023.00
2023-03-29T06:03:23.946Z,1021.00
2023-03-29T06:04:23.956Z,1019.00
2023-03-29T06:05:24.744Z,1018.00
2023-03-29T06:06:23.883Z,1018.00
2023-03-29T06:07:23.883Z,1016.00
2023-03-29T06:08:23.900Z,1014.00
2023-03-29T06:09:23.909Z,1010.00
2023-03-29T06:10:23.934Z,1007.00
2023-03-29T06:11:23.932Z,1007.00
2023-03-29T06:12:23.935Z,1010.00
2023-03-29T06:13:23.951Z,1014.00
2023-03-29T06:14:23.949Z,1018.00
2023-03-29T06:15:23.966Z,1021.00
2023-03-29T06:16:24.001Z,1020.00
2023-03-29T06:17:24.076Z,1018.00
2023-03-29T06:18:23.987Z,1016.00
2023-03-29T06:19:23.986Z,1015.00
2023-03-29T06:20:24.003Z,1015.00
2023-03-29T06:21:24.011Z,1013.00
2023-03-29T06:22:24.011Z,1011.00
2023-03-29T06:23:24.020Z,1008.00
2023-03-29T06:24:24.036Z,1013.00
2023-03-29T06:25:24.031Z,1018.00
2023-03-29T06:26:24.078Z,1024.00
2023-03-29T06:27:24.069Z,1026.00
2023-03-29T06:28:24.069Z,1054.00
2023-03-29T06:29:24.130Z,1070.00
2023-03-29T06:30:24.095Z,1088.00
2023-03-29T06:31:24.164Z,1112.00
2023-03-29T06:32:24.125Z,1130.00
2023-03-29T06:33:24.107Z,1156.00
2023-03-29T06:34:24.125Z,1178.00
2023-03-29T06:35:24.299Z,1194.00
2023-03-29T06:36:24.154Z,1212.00
2023-03-29T06:37:24.163Z,1223.00
2023-03-29T06:38:24.169Z,1240.00
2023-03-29T06:39:24.164Z,1254.00
2023-03-29T06:40:24.180Z,1255.00
2023-03-29T06:41:24.211Z,1273.00
2023-03-29T06:42:24.171Z,1293.00
2023-03-29T06:43:24.155Z,1304.00
2023-03-29T06:44:24.140Z,1305.00
2023-03-29T06:45:24.740Z,1312.00
2023-03-29T06:46:24.164Z,1324.00
2023-03-29T06:47:24.127Z,1341.00
2023-03-29T06:48:24.094Z,1358.00
2023-03-29T06:49:24.141Z,1369.00
2023-03-29T06:50:24.235Z,1397.00
2023-03-29T06:51:24.231Z,1418.00
2023-03-29T06:52:24.234Z,1433.00
2023-03-29T06:53:24.232Z,1454.00
2023-03-29T06:54:24.276Z,1480.00
2023-03-29T06:55:24.333Z,1489.00
2023-03-29T06:56:24.357Z,1539.00
2023-03-29T06:57:24.546Z,1547.00
2023-03-29T06:58:24.422Z,1579.00
2023-03-29T06:59:24.482Z,1618.00
2023-03-29T07:00:24.522Z,1635.00
2023-03-29T07:01:24.596Z,1676.00
2023-03-29T07:02:24.662Z,1719.00
2023-03-29T07:03:24.646Z,1731.00
2023-03-29T07:04:24.741Z,1731.00
2023-03-29T07:05:24.727Z,1756.00
2023-03-29T07:06:24.771Z,1757.00
2023-03-29T07:07:24.815Z,1782.00
2023-03-29T07:08:24.831Z,1808.00
2023-03-29T07:09:24.870Z,1822.00
2023-03-29T07:10:25.037Z,1827.00
2023-03-29T07:11:24.939Z,1839.00
2023-03-29T07:12:24.967Z,1903.00
2023-03-29T07:13:24.970Z,1942.00
2023-03-29T07:14:24.991Z,1957.00
2023-03-29T07:15:25.022Z,1983.00
2023-03-29T07:16:25.049Z,1981.00
2023-03-29T07:17:25.076Z,1982.00
2023-03-29T07:18:25.043Z,1996.00
2023-03-29T07:19:25.055Z,2009.00
2023-03-29T07:20:25.096Z,2018.00
2023-03-29T07:21:25.082Z,2023.00
2023-03-29T07:22:25.073Z,2020.00
2023-03-29T07:23:25.093Z,2017.00
2023-03-29T07:24:25.099Z,2007.00
2023-03-29T07:25:25.144Z,1993.00
2023-03-29T07:26:28.969Z,1986.00
2023-03-29T07:27:26.146Z,1983.00
2023-03-29T07:28:25.136Z,1971.00
2023-03-29T07:29:25.113Z,1960.00
2023-03-29T07:30:25.135Z,1943.00
2023-03-29T07:31:25.082Z,1918.00
2023-03-29T07:32:25.134Z,1909.00
2023-03-29T07:33:25.127Z,1900.00
2023-03-29T07:34:25.049Z,1884.00
2023-03-29T07:35:25.018Z,1871.00
2023-03-29T07:36:25.001Z,1843.00
2023-03-29T07:37:25.052Z,1841.00
2023-03-29T07:38:25.106Z,1844.00
2023-03-29T07:39:25.129Z,1842.00
2023-03-29T07:40:25.235Z,1837.00
2023-03-29T07:41:25.106Z,1827.00
2023-03-29T07:42:25.097Z,1818.00
2023-03-29T07:43:25.115Z,1813.00
2023-03-29T07:44:25.182Z,1794.00
2023-03-29T07:45:26.521Z,1782.00
2023-03-29T07:46:25.291Z,1772.00
2023-03-29T07:47:25.156Z,1760.00
2023-03-29T07:48:25.105Z,1754.00
2023-03-29T07:49:25.081Z,1744.00
2023-03-29T07:50:25.063Z,1743.00
2023-03-29T07:51:25.040Z,1737.00
2023-03-29T07:52:25.034Z,1728.00
2023-03-29T07:53:25.017Z,1710.00
2023-03-29T07:54:25.046Z,1698.00
2023-03-29T07:55:24.966Z,1691.00
2023-03-29T07:56:25.006Z,1684.00
2023-03-29T07:57:25.107Z,1676.00
2023-03-29T07:58:24.923Z,1671.00
2023-03-29T07:59:24.911Z,1662.00
2023-03-29T08:00:25.924Z,1652.00
2023-03-29T08:01:24.948Z,1645.00
2023-03-29T08:02:24.892Z,1640.00
2023-03-29T08:03:24.898Z,1629.00
2023-03-29T08:04:24.994Z,1617.00
2023-03-29T08:05:37.604Z,1607.00
2023-03-29T08:06:25.777Z,1602.00
2023-03-29T08:07:24.739Z,1595.00
2023-03-29T08:08:24.746Z,1586.00
2023-03-29T08:09:24.713Z,1573.00
2023-03-29T08:10:24.709Z,1556.00
2023-03-29T08:11:24.682Z,1545.00
2023-03-29T08:12:25.096Z,1486.00
2023-03-29T08:13:24.656Z,1508.00
2023-03-29T08:14:24.637Z,1519.00
2023-03-29T08:15:24.625Z,1519.00
2023-03-29T08:16:24.639Z,1524.00
2023-03-29T08:17:24.634Z,1562.00
2023-03-29T08:18:24.571Z,1210.00
2023-03-29T08:19:24.552Z,1067.00
2023-03-29T08:20:24.544Z,1049.00
2023-03-29T08:21:24.534Z,1164.00
2023-03-29T08:22:24.512Z,1288.00
2023-03-29T08:23:24.518Z,1287.00
2023-03-29T08:24:24.493Z,1305.00
2023-03-29T08:25:24.480Z,1390.00
2023-03-29T08:26:24.469Z,1391.00
2023-03-29T08:27:24.450Z,1398.00
2023-03-29T08:28:24.439Z,1400.00
2023-03-29T08:29:25.284Z,1422.00
2023-03-29T08:30:24.428Z,1446.00
2023-03-29T08:31:24.465Z,1476.00
2023-03-29T08:32:24.468Z,1502.00
2023-03-29T08:33:24.420Z,1522.00
2023-03-29T08:34:25.384Z,1539.00
2023-03-29T08:35:24.366Z,1594.00
2023-03-29T08:36:25.288Z,1608.00
2023-03-29T08:37:24.331Z,1619.00
2023-03-29T08:38:24.462Z,1652.00
2023-03-29T08:39:24.277Z,1660.00
2023-03-29T08:40:24.250Z,1681.00
2023-03-29T08:41:24.233Z,1725.00
2023-03-29T08:42:24.249Z,1742.00
2023-03-29T08:43:24.297Z,1752.00
2023-03-29T08:44:24.341Z,1772.00
2023-03-29T08:45:24.380Z,1804.00
2023-03-29T08:46:24.451Z,1832.00
2023-03-29T08:47:24.472Z,1858.00
2023-03-29T08:48:25.209Z,1885.00
2023-03-29T08:49:24.531Z,1894.00
2023-03-29T08:50:24.544Z,1919.00
2023-03-29T08:51:24.599Z,1934.00
2023-03-29T08:52:25.217Z,1953.00
2023-03-29T08:53:24.641Z,1975.00
2023-03-29T08:54:24.665Z,1993.00
2023-03-29T08:55:24.684Z,2007.00
2023-03-29T08:56:24.706Z,2025.00
2023-03-29T08:57:25.815Z,2037.00
2023-03-29T08:58:24.667Z,2061.00
2023-03-29T08:59:24.636Z,2097.00
2023-03-29T09:00:24.619Z,2110.00
2023-03-29T09:01:24.582Z,2129.00
2023-03-29T09:02:24.648Z,2163.00
2023-03-29T09:03:24.599Z,2177.00
2023-03-29T09:04:24.504Z,2199.00
2023-03-29T09:05:24.484Z,2213.00
2023-03-29T09:06:24.453Z,2231.00
2023-03-29T09:07:26.453Z,2253.00
2023-03-29T09:08:24.403Z,2270.00
2023-03-29T09:09:24.369Z,2286.00
2023-03-29T09:10:24.336Z,2311.00
2023-03-29T09:11:24.350Z,2324.00
2023-03-29T09:12:24.283Z,2336.00
2023-03-29T09:13:24.276Z,2350.00
2023-03-29T09:14:24.227Z,2373.00
2023-03-29T09:15:24.212Z,2407.00
2023-03-29T09:16:24.194Z,2432.00
2023-03-29T09:17:24.179Z,2466.00
2023-03-29T09:18:24.182Z,2503.00
2023-03-29T09:19:24.161Z,2536.00
2023-03-29T09:20:24.143Z,2530.00
2023-03-29T09:21:24.143Z,2517.00
2023-03-29T09:22:24.148Z,2527.00
2023-03-29T09:23:24.133Z,2525.00
2023-03-29T09:24:24.114Z,2514.00
2023-03-29T09:25:24.113Z,2518.00
2023-03-29T09:26:24.100Z,2516.00
2023-03-29T09:27:24.114Z,2519.00
2023-03-29T09:28:24.144Z,2524.00
2023-03-29T09:29:24.041Z,2540.00
2023-03-29T09:30:24.018Z,2547.00
2023-03-29T09:31:24.028Z,2561.00
2023-03-29T09:32:24.082Z,2582.00
2023-03-29T09:33:23.989Z,2589.00
2023-03-29T09:34:23.934Z,2611.00
2023-03-29T09:35:23.945Z,2614.00
2023-03-29T09:36:23.898Z,2607.00
2023-03-29T09:37:23.879Z,2616.00
2023-03-29T09:38:23.857Z,2653.00
2023-03-29T09:39:23.853Z,2680.00
2023-03-29T09:40:23.837Z,2681.00
2023-03-29T09:41:23.819Z,2680.00
2023-03-29T09:42:23.792Z,2691.00
2023-03-29T09:43:23.774Z,2686.00
2023-03-29T09:44:30.763Z,2699.00
2023-03-29T09:45:24.740Z,2712.00
2023-03-29T09:46:23.704Z,2733.00
2023-03-29T09:47:23.693Z,2803.00
2023-03-29T09:48:23.645Z,2819.00
2023-03-29T09:49:23.607Z,2840.00
2023-03-29T09:50:31.718Z,2874.00
2023-03-29T09:51:24.553Z,2910.00
2023-03-29T09:52:23.534Z,2933.00
2023-03-29T09:53:23.496Z,2941.00
2023-03-29T09:54:23.453Z,2996.00
2023-03-29T09:55:23.416Z,3060.00
2023-03-29T09:56:23.387Z,3065.00
2023-03-29T09:57:23.397Z,3086.00
2023-03-29T09:58:23.349Z,3171.00
2023-03-29T09:59:23.303Z,3203.00
2023-03-29T10:00:23.281Z,3214.00
2023-03-29T10:01:23.298Z,3226.00
2023-03-29T10:02:23.225Z,3228.00
2023-03-29T10:03:23.172Z,3231.00
2023-03-29T10:04:23.216Z,3269.00
2023-03-29T10:05:23.146Z,3280.00
2023-03-29T10:06:23.155Z,3290.00
2023-03-29T10:07:23.159Z,3310.00
2023-03-29T10:08:23.192Z,3357.00
2023-03-29T10:09:23.211Z,3370.00
2023-03-29T10:10:23.243Z,3382.00
2023-03-29T10:11:23.362Z,3396.00
2023-03-29T10:12:23.307Z,3426.00
2023-03-29T10:13:23.343Z,3452.00
2023-03-29T10:14:23.348Z,3455.00
2023-03-29T10:15:29.732Z,3411.00
2023-03-29T10:16:24.375Z,2865.00
2023-03-29T10:17:23.325Z,2767.00
2023-03-29T10:18:23.231Z,2389.00
2023-03-29T10:19:23.222Z,2620.00
2023-03-29T10:20:23.178Z,2733.00
2023-03-29T10:21:23.174Z,2298.00
2023-03-29T10:22:23.148Z,2477.00
2023-03-29T10:23:23.068Z,2104.00
2023-03-29T10:24:23.049Z,2091.00
2023-03-29T10:25:23.012Z,2457.00
2023-03-29T10:26:23.009Z,2395.00
2023-03-29T10:27:22.971Z,2271.00
2023-03-29T10:28:22.958Z,2177.00
2023-03-29T10:29:22.996Z,2198.00
2023-03-29T10:30:23.028Z,2060.00
2023-03-29T10:31:23.151Z,2187.00
2023-03-29T10:32:23.245Z,2165.00
2023-03-29T10:33:23.115Z,2154.00
2023-03-29T10:34:23.142Z,2149.00
2023-03-29T10:35:23.157Z,2156.00
2023-03-29T10:36:23.176Z,2156.00
2023-03-29T10:37:23.196Z,2149.00
2023-03-29T10:38:23.204Z,2136.00
2023-03-29T10:39:23.210Z,2126.00
2023-03-29T10:40:23.234Z,2118.00
2023-03-29T10:41:23.226Z,2114.00
2023-03-29T10:42:23.192Z,2104.00
2023-03-29T10:43:23.218Z,2100.00
2023-03-29T10:44:23.196Z,2097.00
2023-03-29T10:45:23.194Z,2086.00
2023-03-29T10:46:23.255Z,2072.00
2023-03-29T10:47:23.345Z,2061.00
2023-03-29T10:48:23.163Z,2051.00
2023-03-29T10:49:24.128Z,2040.00
2023-03-29T10:50:23.092Z,2035.00
2023-03-29T10:51:23.074Z,2028.00
2023-03-29T10:52:23.845Z,2025.00
2023-03-29T10:53:23.014Z,2027.00
2023-03-29T10:54:22.977Z,2029.00
2023-03-29T10:55:22.952Z,2027.00
2023-03-29T10:56:22.925Z,2028.00
2023-03-29T10:57:23.008Z,2024.00
2023-03-29T10:58:22.852Z,2018.00
2023-03-29T10:59:22.823Z,2010.00
2023-03-29T11:00:22.772Z,1998.00
2023-03-29T11:01:22.790Z,1986.00
2023-03-29T11:02:22.749Z,1981.00
2023-03-29T11:03:22.811Z,1972.00
2023-03-29T11:04:22.632Z,1966.00
2023-03-29T11:05:22.611Z,1960.00
2023-03-29T11:06:22.573Z,1945.00
2023-03-29T11:07:22.563Z,1606.00
2023-03-29T11:08:22.504Z,1810.00
2023-03-29T11:09:22.477Z,1882.00
2023-03-29T11:10:22.448Z,1878.00
2023-03-29T11:11:22.405Z,1864.00
2023-03-29T11:12:22.373Z,1851.00
2023-03-29T11:13:22.348Z,1846.00
2023-03-29T11:14:22.326Z,1843.00
2023-03-29T11:15:22.330Z,1841.00
2023-03-29T11:16:22.428Z,1833.00
2023-03-29T11:17:22.360Z,1833.00
2023-03-29T11:18:22.313Z,1831.00
2023-03-29T11:19:22.312Z,1829.00
2023-03-29T11:20:22.320Z,1829.00
2023-03-29T11:21:22.306Z,1829.00
2023-03-29T11:22:22.296Z,1830.00
2023-03-29T11:23:22.308Z,1833.00
2023-03-29T11:24:22.335Z,1831.00
2023-03-29T11:25:22.298Z,1828.00
2023-03-29T11:26:22.308Z,1826.00
2023-03-29T11:27:22.312Z,1825.00
2023-03-29T11:28:22.316Z,1821.00
2023-03-29T11:29:22.319Z,1822.00
2023-03-29T11:30:22.330Z,1818.00
2023-03-29T11:31:22.363Z,1819.00
2023-03-29T11:32:22.366Z,1819.00
2023-03-29T11:33:22.382Z,1816.00
2023-03-29T11:34:22.381Z,1813.00
2023-03-29T11:35:22.382Z,1812.00
2023-03-29T11:36:22.411Z,1812.00
2023-03-29T11:37:22.425Z,1812.00
2023-03-29T11:38:22.463Z,1809.00
2023-03-29T11:39:22.484Z,1801.00
2023-03-29T11:40:22.525Z,1765.00
2023-03-29T11:41:22.543Z,1753.00
2023-03-29T11:42:23.283Z,1602.00
2023-03-29T11:43:22.598Z,1615.00
2023-03-29T11:44:22.642Z,1591.00
2023-03-29T11:45:22.700Z,1623.00
2023-03-29T11:46:22.805Z,1650.00
2023-03-29T11:47:22.751Z,1653.00
2023-03-29T11:48:22.782Z,1646.00
2023-03-29T11:49:22.810Z,1622.00
2023-03-29T11:50:22.844Z,1578.00
2023-03-29T11:51:22.898Z,1540.00
2023-03-29T11:52:22.939Z,1518.00
2023-03-29T11:53:22.947Z,1502.00
2023-03-29T11:54:22.983Z,1500.00
2023-03-29T11:55:23.045Z,1498.00
2023-03-29T11:56:23.067Z,1494.00
2023-03-29T11:57:23.160Z,1489.00
2023-03-29T11:58:23.148Z,1488.00
2023-03-29T11:59:23.178Z,1486.00
2023-03-29T12:00:23.237Z,1484.00
2023-03-29T12:01:23.267Z,1483.00
2023-03-29T12:02:23.425Z,1480.00
2023-03-29T12:03:23.406Z,1476.00
2023-03-29T12:04:23.395Z,1472.00
2023-03-29T12:05:23.404Z,1468.00
2023-03-29T12:06:23.434Z,1466.00